MSC Maeva — H9TF — position and weather

sailwx.info

Track history (hours):
 
Tides and Currents Weather Stations Pressure Air Temp Water Temp Dewpoint Dewpoint Depression Visibility Wind Speed Wind Dir Waves Ship Positions

MSC Maeva

Last reported at 2016-Aug-14 17:27 UTC. Time now 2016-Aug-29 03:45 UTC.
Position N 36°15' E 014°54'.
Warning: this ship's position is 14 days out of date.

Type: Ship (hazmat cat A). MMSI: 371851000.

Date/timePositionNaut miles runAvg speedWind from/ knotsBaromVisibWave heightAir tempDewpointWater temp
2016-Aug-14 17:27N 36°15' E 014°54'1819.8
2016-Aug-14 16:34N 36°21' E 014°33'2019.9
2016-Aug-14 15:33N 36°27' E 014°09'2120.5
2016-Aug-14 14:33N 36°33' E 013°45'2020.5
2016-Aug-14 13:33N 36°39' E 013°21'76619.1
2016-Aug-12 21:25N 36°13' W 002°30'13619.8
2016-Aug-12 14:33N 35°60' W 005°18'2519.8
2016-Aug-12 13:17N 35°54' W 005°49'19114.6
2016-Aug-12 00:09N 37°33' W 009°12'1219.7
2016-Aug-11 23:33N 37°43' W 009°03'1616.3
2016-Aug-11 22:33N 37°56' W 008°51'1 0.5
2016-Aug-11 21:32N 37°56' W 008°51'0 0.0
2016-Aug-11 20:32N 37°56' W 008°51'0 0.0
2016-Aug-11 19:32N 37°56' W 008°51'0 0.0
2016-Aug-11 18:32N 37°56' W 008°51'0 0.0
2016-Aug-11 17:32N 37°56' W 008°51'0 0.0
2016-Aug-11 16:32N 37°56' W 008°51'0 0.0
2016-Aug-11 15:32N 37°56' W 008°51'0 0.0
2016-Aug-11 14:32N 37°56' W 008°51'0 0.0
2016-Aug-11 13:29N 37°56' W 008°51'0 0.0
2016-Aug-11 12:32N 37°56' W 008°51'0 0.0
2016-Aug-11 11:32N 37°56' W 008°51'0 0.0
2016-Aug-11 10:29N 37°56' W 008°51'0 0.0
2016-Aug-11 09:32N 37°56' W 008°51'0 0.0
2016-Aug-11 08:32N 37°56' W 008°51'0 0.1
2016-Aug-11 07:33N 37°56' W 008°51'3 2.8
2016-Aug-11 06:33N 37°53' W 008°51'4 4.4
2016-Aug-11 05:33N 37°52' W 008°57'7 6.6
2016-Aug-11 04:33N 37°51' W 009°05'1 0.5
2016-Aug-11 03:33N 37°50' W 009°05'0 0.3
2016-Aug-11 02:33N 37°50' W 009°06'0 0.4
2016-Aug-11 01:33N 37°50' W 009°06'1 0.6
2016-Aug-11 00:32N 37°51' W 009°07'1 0.9
2016-Aug-10 23:32N 37°51' W 009°08'1 0.9
2016-Aug-10 22:26N 37°52' W 009°09'1 1.1
2016-Aug-10 21:32N 37°52' W 009°10'1 1.2
2016-Aug-10 20:32N 37°54' W 009°10'2 1.5
2016-Aug-10 19:32N 37°55' W 009°11'2 1.6
2016-Aug-10 18:32N 37°56' W 009°12'4 4.5
2016-Aug-10 17:34N 37°57' W 009°17'1313.2
2016-Aug-10 16:34N 37°57' W 009°34'1313.0
2016-Aug-10 15:33N 37°57' W 009°51'1313.0
2016-Aug-10 14:33N 37°57' W 010°07'1312.8
2016-Aug-10 13:33N 37°56' W 010°23'11011.9
2016-Aug-10 04:18N 37°48' W 012°42'8111.5
2016-Aug-09 21:15N 37°51' W 014°25'911.4
2016-Aug-09 20:25N 37°51' W 014°37'1011.6
2016-Aug-09 19:32N 37°51' W 014°50'1111.6
2016-Aug-09 18:33N 37°52' W 015°04'1211.7
2016-Aug-09 17:33N 37°52' W 015°19'1211.5
2016-Aug-09 16:29N 37°53' W 015°34'1311.4
2016-Aug-09 15:19N 37°53' W 015°52'1011.8
2016-Aug-09 14:29N 37°53' W 016°04'1111.4
2016-Aug-09 13:31N 37°54' W 016°18'1211.4
2016-Aug-09 12:28N 37°54' W 016°33'1111.5
2016-Aug-09 11:32N 37°55' W 016°47'1211.8
2016-Aug-09 10:32N 37°56' W 017°01'1211.9
2016-Aug-09 09:34N 37°57' W 017°16'1211.8
2016-Aug-09 08:32N 37°58' W 017°31'1212.2
2016-Aug-09 07:33N 37°59' W 017°47'2412.2
2016-Aug-09 05:34N 37°59' W 018°17'2912.8
2016-Aug-09 03:16N 37°59' W 018°55'912.9
2016-Aug-09 02:33N 37°59' W 019°06'1312.9
2016-Aug-09 01:33N 37°59' W 019°23'1612.8
2016-Aug-09 00:18N 37°59' W 019°43'1012.6
2016-Aug-08 23:32N 37°60' W 019°55'1212.4
2016-Aug-08 22:33N 37°60' W 020°11'1312.6
2016-Aug-08 21:33N 37°60' W 020°27'1312.7
2016-Aug-08 20:33N 37°60' W 020°43'1312.7
2016-Aug-08 19:33N 37°60' W 020°59'1312.8
2016-Aug-08 18:33N 37°60' W 021°15'1312.6
2016-Aug-08 17:33N 38°00' W 021°31'1212.3
2016-Aug-08 16:33N 38°00' W 021°47'1212.4
2016-Aug-08 15:33N 38°00' W 022°03'1212.4
2016-Aug-08 14:33N 38°00' W 022°18'1312.6
2016-Aug-08 13:33N 38°01' W 022°35'1312.7
2016-Aug-08 12:34N 38°01' W 022°50'1312.7
2016-Aug-08 11:33N 38°01' W 023°07'1312.7
2016-Aug-08 10:33N 38°01' W 023°23'1817.6
2016-Aug-08 09:33N 38°01' W 023°45'1515.1
2016-Aug-08 08:33N 38°01' W 024°04'1414.1
2016-Aug-08 07:33N 38°01' W 024°22'1414.3
2016-Aug-08 06:33N 38°01' W 024°40'1514.6
2016-Aug-08 05:33N 38°02' W 024°59'1414.1
2016-Aug-08 04:34N 38°02' W 025°17'1414.3
2016-Aug-08 03:34N 38°02' W 025°35'1414.3
2016-Aug-08 02:33N 38°02' W 025°53'1414.1
2016-Aug-08 01:34N 38°02' W 026°11'1414.3
2016-Aug-08 00:33N 38°02' W 026°29'1514.6
2016-Aug-07 23:33N 38°03' W 026°47'1514.6
2016-Aug-07 22:34N 38°03' W 027°06'1514.6
2016-Aug-07 21:33N 38°03' W 027°25'1414.1
2016-Aug-07 20:34N 38°03' W 027°42'1414.0
2016-Aug-07 19:33N 38°04' W 028°00'1414.3
2016-Aug-07 18:33N 38°04' W 028°18'1414.5
2016-Aug-07 17:33N 38°05' W 028°37'1414.2
2016-Aug-07 16:33N 38°05' W 028°55'1414.2
2016-Aug-07 15:33N 38°06' W 029°13'1514.6
2016-Aug-07 14:33N 38°06' W 029°31'1514.5
2016-Aug-07 13:34N 38°07' W 029°50'1514.5
2016-Aug-07 12:31N 38°07' W 030°09'1515.4
2016-Aug-07 11:33N 38°07' W 030°28'1514.9
2016-Aug-07 10:33N 38°07' W 030°46'1914.7
2016-Aug-07 09:17N 38°05' W 031°10'  
Track history (hours):
 
Tides and Currents Weather Stations Pressure Air Temp Water Temp Dewpoint Dewpoint Depression Visibility Wind Speed Wind Dir Waves Ship Positions

MSC Maeva

Last reported at 2016-Aug-14 17:27 UTC. Time now 2016-Aug-29 03:45 UTC.
Position N 36°15' E 014°54'.
Warning: this ship's position is 14 days out of date.

Type: Ship (hazmat cat A). MMSI: 371851000.

Date/timePositionNaut miles runAvg speedWind from/ knotsBaromVisibWave heightAir tempDewpointWater temp
2016-Aug-14 17:27N 36°15' E 014°54'1819.8
2016-Aug-14 16:34N 36°21' E 014°33'2019.9
2016-Aug-14 15:33N 36°27' E 014°09'2120.5
2016-Aug-14 14:33N 36°33' E 013°45'2020.5
2016-Aug-14 13:33N 36°39' E 013°21'76619.1
2016-Aug-12 21:25N 36°13' W 002°30'13619.8
2016-Aug-12 14:33N 35°60' W 005°18'2519.8
2016-Aug-12 13:17N 35°54' W 005°49'19114.6
2016-Aug-12 00:09N 37°33' W 009°12'1219.7
2016-Aug-11 23:33N 37°43' W 009°03'1616.3
2016-Aug-11 22:33N 37°56' W 008°51'1 0.5
2016-Aug-11 21:32N 37°56' W 008°51'0 0.0
2016-Aug-11 20:32N 37°56' W 008°51'0 0.0
2016-Aug-11 19:32N 37°56' W 008°51'0 0.0
2016-Aug-11 18:32N 37°56' W 008°51'0 0.0
2016-Aug-11 17:32N 37°56' W 008°51'0 0.0
2016-Aug-11 16:32N 37°56' W 008°51'0 0.0
2016-Aug-11 15:32N 37°56' W 008°51'0 0.0
2016-Aug-11 14:32N 37°56' W 008°51'0 0.0
2016-Aug-11 13:29N 37°56' W 008°51'0 0.0
2016-Aug-11 12:32N 37°56' W 008°51'0 0.0
2016-Aug-11 11:32N 37°56' W 008°51'0 0.0
2016-Aug-11 10:29N 37°56' W 008°51'0 0.0
2016-Aug-11 09:32N 37°56' W 008°51'0 0.0
2016-Aug-11 08:32N 37°56' W 008°51'0 0.1
2016-Aug-11 07:33N 37°56' W 008°51'3 2.8
2016-Aug-11 06:33N 37°53' W 008°51'4 4.4
2016-Aug-11 05:33N 37°52' W 008°57'7 6.6
2016-Aug-11 04:33N 37°51' W 009°05'1 0.5
2016-Aug-11 03:33N 37°50' W 009°05'0 0.3
2016-Aug-11 02:33N 37°50' W 009°06'0 0.4
2016-Aug-11 01:33N 37°50' W 009°06'1 0.6
2016-Aug-11 00:32N 37°51' W 009°07'1 0.9
2016-Aug-10 23:32N 37°51' W 009°08'1 0.9
2016-Aug-10 22:26N 37°52' W 009°09'1 1.1
2016-Aug-10 21:32N 37°52' W 009°10'1 1.2
2016-Aug-10 20:32N 37°54' W 009°10'2 1.5
2016-Aug-10 19:32N 37°55' W 009°11'2 1.6
2016-Aug-10 18:32N 37°56' W 009°12'4 4.5
2016-Aug-10 17:34N 37°57' W 009°17'1313.2
2016-Aug-10 16:34N 37°57' W 009°34'1313.0
2016-Aug-10 15:33N 37°57' W 009°51'1313.0
2016-Aug-10 14:33N 37°57' W 010°07'1312.8
2016-Aug-10 13:33N 37°56' W 010°23'11011.9
2016-Aug-10 04:18N 37°48' W 012°42'8111.5
2016-Aug-09 21:15N 37°51' W 014°25'911.4
2016-Aug-09 20:25N 37°51' W 014°37'1011.6
2016-Aug-09 19:32N 37°51' W 014°50'1111.6
2016-Aug-09 18:33N 37°52' W 015°04'1211.7
2016-Aug-09 17:33N 37°52' W 015°19'1211.5
2016-Aug-09 16:29N 37°53' W 015°34'1311.4
2016-Aug-09 15:19N 37°53' W 015°52'1011.8
2016-Aug-09 14:29N 37°53' W 016°04'1111.4
2016-Aug-09 13:31N 37°54' W 016°18'1211.4
2016-Aug-09 12:28N 37°54' W 016°33'1111.5
2016-Aug-09 11:32N 37°55' W 016°47'1211.8
2016-Aug-09 10:32N 37°56' W 017°01'1211.9
2016-Aug-09 09:34N 37°57' W 017°16'1211.8
2016-Aug-09 08:32N 37°58' W 017°31'1212.2
2016-Aug-09 07:33N 37°59' W 017°47'2412.2
2016-Aug-09 05:34N 37°59' W 018°17'2912.8
2016-Aug-09 03:16N 37°59' W 018°55'912.9
2016-Aug-09 02:33N 37°59' W 019°06'1312.9
2016-Aug-09 01:33N 37°59' W 019°23'1612.8
2016-Aug-09 00:18N 37°59' W 019°43'1012.6
2016-Aug-08 23:32N 37°60' W 019°55'1212.4
2016-Aug-08 22:33N 37°60' W 020°11'1312.6
2016-Aug-08 21:33N 37°60' W 020°27'1312.7
2016-Aug-08 20:33N 37°60' W 020°43'1312.7
2016-Aug-08 19:33N 37°60' W 020°59'1312.8
2016-Aug-08 18:33N 37°60' W 021°15'1312.6
2016-Aug-08 17:33N 38°00' W 021°31'1212.3
2016-Aug-08 16:33N 38°00' W 021°47'1212.4
2016-Aug-08 15:33N 38°00' W 022°03'1212.4
2016-Aug-08 14:33N 38°00' W 022°18'1312.6
2016-Aug-08 13:33N 38°01' W 022°35'1312.7
2016-Aug-08 12:34N 38°01' W 022°50'1312.7
2016-Aug-08 11:33N 38°01' W 023°07'1312.7
2016-Aug-08 10:33N 38°01' W 023°23'1817.6
2016-Aug-08 09:33N 38°01' W 023°45'1515.1
2016-Aug-08 08:33N 38°01' W 024°04'1414.1
2016-Aug-08 07:33N 38°01' W 024°22'1414.3
2016-Aug-08 06:33N 38°01' W 024°40'1514.6
2016-Aug-08 05:33N 38°02' W 024°59'1414.1
2016-Aug-08 04:34N 38°02' W 025°17'1414.3
2016-Aug-08 03:34N 38°02' W 025°35'1414.3
2016-Aug-08 02:33N 38°02' W 025°53'1414.1
2016-Aug-08 01:34N 38°02' W 026°11'1414.3
2016-Aug-08 00:33N 38°02' W 026°29'1514.6
2016-Aug-07 23:33N 38°03' W 026°47'1514.6
2016-Aug-07 22:34N 38°03' W 027°06'1514.6
2016-Aug-07 21:33N 38°03' W 027°25'1414.1
2016-Aug-07 20:34N 38°03' W 027°42'1414.0
2016-Aug-07 19:33N 38°04' W 028°00'1414.3
2016-Aug-07 18:33N 38°04' W 028°18'1414.5
2016-Aug-07 17:33N 38°05' W 028°37'1414.2
2016-Aug-07 16:33N 38°05' W 028°55'1414.2
2016-Aug-07 15:33N 38°06' W 029°13'1514.6
2016-Aug-07 14:33N 38°06' W 029°31'1514.5
2016-Aug-07 13:34N 38°07' W 029°50'1514.5
2016-Aug-07 12:31N 38°07' W 030°09'1515.4
2016-Aug-07 11:33N 38°07' W 030°28'1514.9
2016-Aug-07 10:33N 38°07' W 030°46'1914.7
2016-Aug-07 09:17N 38°05' W 031°10'  

Dump ship's entire track history